createdAt,value
2018-06-25T00:00:49.318Z,17.10
2018-06-25T00:01:49.324Z,16.60
2018-06-25T00:02:49.235Z,17.30
2018-06-25T00:03:49.231Z,17.10
2018-06-25T00:04:49.172Z,18.10
2018-06-25T00:05:49.133Z,17.40
2018-06-25T00:06:49.125Z,18.20
2018-06-25T00:07:49.053Z,17.70
2018-06-25T00:08:49.028Z,17.30
2018-06-25T00:09:48.984Z,17.30
2018-06-25T00:10:48.960Z,17.30
2018-06-25T00:11:48.959Z,16.80
2018-06-25T00:12:48.899Z,17.30
2018-06-25T00:13:48.834Z,17.20
2018-06-25T00:14:48.795Z,18.00
2018-06-25T00:15:48.738Z,18.10
2018-06-25T00:16:48.708Z,17.00
2018-06-25T00:17:48.720Z,16.90
2018-06-25T00:18:48.624Z,16.90
2018-06-25T00:19:48.626Z,16.50
2018-06-25T00:20:48.568Z,16.70
2018-06-25T00:21:48.522Z,16.40
2018-06-25T00:22:48.542Z,17.30
2018-06-25T00:23:48.434Z,16.50
2018-06-25T00:24:48.409Z,16.80
2018-06-25T00:25:48.390Z,16.20
2018-06-25T00:26:48.323Z,16.40
2018-06-25T00:27:48.277Z,17.20
2018-06-25T00:28:48.282Z,16.30
2018-06-25T00:29:48.208Z,16.20
2018-06-25T00:30:48.175Z,16.80
2018-06-25T00:31:48.153Z,16.00
2018-06-25T00:32:48.108Z,15.30
2018-06-25T00:33:48.093Z,15.10
2018-06-25T00:34:48.038Z,14.60
2018-06-25T00:35:47.994Z,15.60
2018-06-25T00:36:47.928Z,15.70
2018-06-25T00:37:47.904Z,15.60
2018-06-25T00:38:47.889Z,16.10
2018-06-25T00:39:47.816Z,15.30
2018-06-25T00:40:47.777Z,14.90
2018-06-25T00:41:47.755Z,14.90
2018-06-25T00:42:47.709Z,14.00
2018-06-25T00:43:57.368Z,15.20
2018-06-25T00:44:47.644Z,15.60
2018-06-25T00:45:47.589Z,14.30
2018-06-25T00:46:47.597Z,15.40
2018-06-25T00:47:47.504Z,15.10
2018-06-25T00:48:47.475Z,14.60
2018-06-25T00:49:47.473Z,14.40
2018-06-25T00:50:47.405Z,15.30
2018-06-25T00:51:47.353Z,15.60
2018-06-25T00:52:47.323Z,15.00
2018-06-25T00:53:47.288Z,14.40
2018-06-25T00:54:47.292Z,15.30
2018-06-25T00:55:47.219Z,14.70
2018-06-25T00:56:47.171Z,15.90
2018-06-25T00:57:47.143Z,14.90
2018-06-25T00:58:47.100Z,15.20
2018-06-25T00:59:47.074Z,16.50
2018-06-25T01:00:47.009Z,14.90
2018-06-25T01:01:46.975Z,16.50
2018-06-25T01:02:46.961Z,15.70
2018-06-25T01:03:46.907Z,14.80
2018-06-25T01:04:46.852Z,14.30
2018-06-25T01:05:46.836Z,14.80
2018-06-25T01:06:46.776Z,14.60
2018-06-25T01:07:56.935Z,14.60
2018-06-25T01:08:46.704Z,14.70
2018-06-25T01:09:46.673Z,14.90
2018-06-25T01:10:46.637Z,14.70
2018-06-25T01:11:46.611Z,13.70
2018-06-25T01:12:46.548Z,14.70
2018-06-25T01:13:46.532Z,13.80
2018-06-25T01:14:46.486Z,14.50
2018-06-25T01:15:46.460Z,15.80
2018-06-25T01:16:46.386Z,15.90
2018-06-25T01:17:46.368Z,14.60
2018-06-25T01:18:46.337Z,15.10
2018-06-25T01:19:46.314Z,14.80
2018-06-25T01:20:46.243Z,14.80
2018-06-25T01:21:46.234Z,14.70
2018-06-25T01:22:46.178Z,15.20
2018-06-25T01:23:46.132Z,15.50
2018-06-25T01:24:46.102Z,14.90
2018-06-25T01:25:46.048Z,15.40
2018-06-25T01:26:46.038Z,16.10
2018-06-25T01:27:45.961Z,15.40
2018-06-25T01:28:45.940Z,15.80
2018-06-25T01:29:45.912Z,16.10
2018-06-25T01:30:45.868Z,16.70
2018-06-25T01:31:45.847Z,15.70
2018-06-25T01:32:45.826Z,16.00
2018-06-25T01:33:45.764Z,16.10
2018-06-25T01:34:45.724Z,15.80
2018-06-25T01:35:45.700Z,15.60
2018-06-25T01:36:45.629Z,16.30
2018-06-25T01:37:45.607Z,15.70
2018-06-25T01:38:45.566Z,15.90
2018-06-25T01:39:45.527Z,15.40
2018-06-25T01:40:45.456Z,14.40
2018-06-25T01:41:45.452Z,14.40
2018-06-25T01:42:45.428Z,13.90
2018-06-25T01:43:45.363Z,15.60
2018-06-25T01:44:45.328Z,13.80
2018-06-25T01:45:45.282Z,13.90
2018-06-25T01:46:45.241Z,13.20
2018-06-25T01:47:45.235Z,14.40
2018-06-25T01:48:45.159Z,14.60
2018-06-25T01:49:45.136Z,15.00
2018-06-25T01:50:45.086Z,14.60
2018-06-25T01:51:45.065Z,13.90
2018-06-25T01:52:45.057Z,15.60
2018-06-25T01:53:44.973Z,14.00
2018-06-25T01:54:44.931Z,12.30
2018-06-25T01:55:44.905Z,11.80
2018-06-25T01:56:44.853Z,11.20
2018-06-25T01:57:44.811Z,10.20
2018-06-25T01:58:44.807Z,9.80
2018-06-25T01:59:44.724Z,11.00
2018-06-25T02:00:44.742Z,10.60
2018-06-25T02:01:44.647Z,10.70
2018-06-25T02:02:44.625Z,8.80
2018-06-25T02:03:44.612Z,9.70
2018-06-25T02:04:44.547Z,8.70
2018-06-25T02:05:44.499Z,10.70
2018-06-25T02:06:44.472Z,9.00
2018-06-25T02:07:44.434Z,8.00
2018-06-25T02:08:44.418Z,8.80
2018-06-25T02:09:44.349Z,8.00
2018-06-25T02:10:44.333Z,8.10
2018-06-25T02:11:44.325Z,7.60
2018-06-25T02:12:44.241Z,7.80
2018-06-25T02:13:44.207Z,8.90
2018-06-25T02:14:44.204Z,8.10
2018-06-25T02:15:44.141Z,8.70
2018-06-25T02:16:44.117Z,10.00
2018-06-25T02:17:44.045Z,8.80
2018-06-25T02:18:44.043Z,8.10
2018-06-25T02:19:54.979Z,9.20
2018-06-25T02:20:43.923Z,8.50
2018-06-25T02:21:43.934Z,9.20
2018-06-25T02:22:43.913Z,11.00
2018-06-25T02:23:43.828Z,8.50
2018-06-25T02:24:43.788Z,9.80
2018-06-25T02:25:43.728Z,9.40
2018-06-25T02:26:43.696Z,8.90
2018-06-25T02:27:43.655Z,9.80
2018-06-25T02:28:43.622Z,10.20
2018-06-25T02:29:43.609Z,8.30
2018-06-25T02:30:43.550Z,10.40
2018-06-25T02:31:43.515Z,8.30
2018-06-25T02:32:43.448Z,8.70
2018-06-25T02:33:43.437Z,9.00
2018-06-25T02:34:43.417Z,10.00
2018-06-25T02:35:43.392Z,9.90
2018-06-25T02:36:43.344Z,10.70
2018-06-25T02:37:43.309Z,8.90
2018-06-25T02:38:43.324Z,11.10
2018-06-25T02:39:43.200Z,11.20
2018-06-25T02:40:43.182Z,10.10
2018-06-25T02:41:43.110Z,10.60
2018-06-25T02:42:43.098Z,11.00
2018-06-25T02:43:43.033Z,10.30
2018-06-25T02:44:42.988Z,10.70
2018-06-25T02:45:43.007Z,11.00
2018-06-25T02:46:42.938Z,9.20
2018-06-25T02:47:42.901Z,10.90
2018-06-25T02:48:42.853Z,10.70
2018-06-25T02:49:42.835Z,11.20
2018-06-25T02:50:42.788Z,10.10
2018-06-25T02:51:42.749Z,14.20
2018-06-25T02:52:42.698Z,10.70
2018-06-25T02:53:42.667Z,9.90
2018-06-25T02:54:42.642Z,12.10
2018-06-25T02:55:42.563Z,12.40
2018-06-25T02:56:42.550Z,13.10
2018-06-25T02:57:42.500Z,13.40
2018-06-25T02:58:42.461Z,13.60
2018-06-25T02:59:42.415Z,12.50
2018-06-25T03:00:42.376Z,13.00
2018-06-25T03:01:42.366Z,15.20
2018-06-25T03:02:42.298Z,16.60
2018-06-25T03:03:42.267Z,15.20
2018-06-25T03:04:42.234Z,15.10
2018-06-25T03:05:42.188Z,15.20
2018-06-25T03:06:42.186Z,15.60
2018-06-25T03:07:42.113Z,16.50
2018-06-25T03:08:42.070Z,14.70
2018-06-25T03:09:42.018Z,15.70
2018-06-25T03:10:41.988Z,16.80
2018-06-25T03:11:41.953Z,16.30
2018-06-25T03:12:41.964Z,18.90
2018-06-25T03:13:41.869Z,16.20
2018-06-25T03:14:41.833Z,16.40
2018-06-25T03:15:41.806Z,16.50
2018-06-25T03:16:41.758Z,14.80
2018-06-25T03:17:41.761Z,14.20
2018-06-25T03:18:41.679Z,15.40
2018-06-25T03:19:41.677Z,13.60
2018-06-25T03:20:41.610Z,14.30
2018-06-25T03:21:41.581Z,13.90
2018-06-25T03:22:41.554Z,13.40
2018-06-25T03:23:41.489Z,12.30
2018-06-25T03:24:41.453Z,13.40
2018-06-25T03:25:41.418Z,12.80
2018-06-25T03:26:41.396Z,10.90
2018-06-25T03:27:41.346Z,12.60
2018-06-25T03:28:41.328Z,11.80
2018-06-25T03:29:41.274Z,11.20
2018-06-25T03:30:41.236Z,11.00
2018-06-25T03:31:53.556Z,12.80
2018-06-25T03:32:41.134Z,12.00
2018-06-25T03:33:41.124Z,10.90
2018-06-25T03:34:41.065Z,11.30
2018-06-25T03:35:41.017Z,10.60
2018-06-25T03:36:40.985Z,12.00
2018-06-25T03:37:40.948Z,10.10
2018-06-25T03:38:40.941Z,12.20
2018-06-25T03:39:40.857Z,11.90
2018-06-25T03:40:40.819Z,9.80
2018-06-25T03:41:40.827Z,10.70
2018-06-25T03:42:40.766Z,8.80
2018-06-25T03:43:40.736Z,9.80
2018-06-25T03:44:40.705Z,8.50
2018-06-25T03:45:40.631Z,10.10
2018-06-25T03:46:40.605Z,9.20
2018-06-25T03:47:40.566Z,10.10
2018-06-25T03:48:40.511Z,8.00
2018-06-25T03:49:40.528Z,9.20
2018-06-25T03:50:40.453Z,9.70
2018-06-25T03:51:40.445Z,9.20
2018-06-25T03:52:40.349Z,8.20
2018-06-25T03:53:40.318Z,8.80
2018-06-25T03:54:40.318Z,9.20
2018-06-25T03:55:40.241Z,9.30
2018-06-25T03:56:40.222Z,9.80
2018-06-25T03:57:40.164Z,8.40
2018-06-25T03:58:40.124Z,9.00
2018-06-25T03:59:40.179Z,7.90
2018-06-25T04:00:40.059Z,7.70
2018-06-25T04:01:40.012Z,7.70
2018-06-25T04:02:39.981Z,8.70
2018-06-25T04:03:39.989Z,9.40
2018-06-25T04:04:39.904Z,9.00
2018-06-25T04:05:39.914Z,8.70
2018-06-25T04:06:39.814Z,7.90
2018-06-25T04:07:39.811Z,9.00
2018-06-25T04:08:39.738Z,8.90
2018-06-25T04:09:39.727Z,8.50
2018-06-25T04:10:39.720Z,10.80
2018-06-25T04:11:39.641Z,9.30
2018-06-25T04:12:39.600Z,9.50
2018-06-25T04:13:39.566Z,8.60
2018-06-25T04:14:39.522Z,10.60
2018-06-25T04:15:39.585Z,9.20
2018-06-25T04:16:39.419Z,9.40
2018-06-25T04:17:39.391Z,9.80
2018-06-25T04:18:39.384Z,10.10
2018-06-25T04:19:39.315Z,11.00
2018-06-25T04:20:39.288Z,9.50
2018-06-25T04:21:39.275Z,10.90
2018-06-25T04:22:39.213Z,9.60
2018-06-25T04:23:39.208Z,9.50
2018-06-25T04:24:39.127Z,9.90
2018-06-25T04:25:39.077Z,10.30
2018-06-25T04:26:39.076Z,9.30
2018-06-25T04:27:39.000Z,9.40
2018-06-25T04:28:38.970Z,11.60
2018-06-25T04:29:38.931Z,9.50
2018-06-25T04:30:38.942Z,8.90
2018-06-25T04:31:38.890Z,10.30
2018-06-25T04:32:38.820Z,8.90
2018-06-25T04:33:38.791Z,9.20
2018-06-25T04:34:38.772Z,8.70
2018-06-25T04:35:38.701Z,9.30
2018-06-25T04:36:38.691Z,9.80
2018-06-25T04:37:38.641Z,8.50
2018-06-25T04:38:38.575Z,9.10
2018-06-25T04:39:38.548Z,8.10
2018-06-25T04:40:38.527Z,9.30
2018-06-25T04:41:38.472Z,10.80
2018-06-25T04:42:38.471Z,9.70
2018-06-25T04:43:38.403Z,7.80
2018-06-25T04:44:38.361Z,9.60
2018-06-25T04:45:38.323Z,9.20
2018-06-25T04:46:38.298Z,9.30
2018-06-25T04:47:38.258Z,9.70
2018-06-25T04:48:38.200Z,9.50
2018-06-25T04:49:38.194Z,8.70
2018-06-25T04:50:38.188Z,8.50
2018-06-25T04:51:38.109Z,10.00
2018-06-25T04:52:38.086Z,9.00
2018-06-25T04:53:37.997Z,8.70
2018-06-25T04:54:38.004Z,9.80
2018-06-25T04:55:37.930Z,9.00
2018-06-25T04:56:37.889Z,7.70
2018-06-25T04:57:37.838Z,8.60
2018-06-25T04:58:37.834Z,9.70
2018-06-25T04:59:37.779Z,8.50
2018-06-25T05:00:37.737Z,9.90
2018-06-25T05:01:37.693Z,8.70
2018-06-25T05:02:37.670Z,8.20
2018-06-25T05:03:37.681Z,8.20
2018-06-25T05:04:37.587Z,8.40
2018-06-25T05:05:37.580Z,8.80
2018-06-25T05:06:37.503Z,8.20
2018-06-25T05:07:37.471Z,10.20
2018-06-25T05:08:37.463Z,9.20
2018-06-25T05:09:37.382Z,8.60
2018-06-25T05:10:37.375Z,8.20
2018-06-25T05:11:37.353Z,7.50
2018-06-25T05:12:37.329Z,9.00
2018-06-25T05:13:37.238Z,9.10
2018-06-25T05:14:37.227Z,8.30
2018-06-25T05:15:37.177Z,8.00
2018-06-25T05:16:37.128Z,7.80
2018-06-25T05:17:37.083Z,7.40
2018-06-25T05:18:37.063Z,7.20
2018-06-25T05:19:37.026Z,8.50
2018-06-25T05:20:36.975Z,8.40
2018-06-25T05:21:36.936Z,7.60
2018-06-25T05:22:36.929Z,7.50
2018-06-25T05:23:36.931Z,7.90
2018-06-25T05:24:36.867Z,6.70
2018-06-25T05:25:36.785Z,6.60
2018-06-25T05:26:36.760Z,7.50
2018-06-25T05:27:36.703Z,8.60
2018-06-25T05:28:36.671Z,7.20
2018-06-25T05:29:36.682Z,7.30
2018-06-25T05:30:47.173Z,7.90
2018-06-25T05:31:36.565Z,6.60
2018-06-25T05:32:36.525Z,7.00
2018-06-25T05:33:36.467Z,7.10
2018-06-25T05:34:36.465Z,7.10
2018-06-25T05:35:36.418Z,7.10
2018-06-25T05:36:36.371Z,7.70
2018-06-25T05:37:36.340Z,8.50
2018-06-25T05:38:36.283Z,9.20
2018-06-25T05:39:36.257Z,8.00
2018-06-25T05:40:36.228Z,7.50
2018-06-25T05:41:36.187Z,7.70
2018-06-25T05:42:36.150Z,9.20
2018-06-25T05:43:36.108Z,8.90
2018-06-25T05:44:36.068Z,8.30
2018-06-25T05:45:36.058Z,8.30
2018-06-25T05:46:35.996Z,9.40
2018-06-25T05:47:35.962Z,7.70
2018-06-25T05:48:35.931Z,6.80
2018-06-25T05:49:35.881Z,8.20
2018-06-25T05:50:35.854Z,8.50
2018-06-25T05:51:35.823Z,7.90
2018-06-25T05:52:35.780Z,8.30
2018-06-25T05:53:35.749Z,8.80
2018-06-25T05:54:47.053Z,10.00
2018-06-25T05:55:35.661Z,8.90
2018-06-25T05:56:35.640Z,9.00
2018-06-25T05:57:35.856Z,9.60
2018-06-25T05:58:35.519Z,9.80
2018-06-25T05:59:35.491Z,9.00
2018-06-25T06:00:35.449Z,9.30
2018-06-25T06:01:35.453Z,9.80
2018-06-25T06:02:35.379Z,10.60
2018-06-25T06:03:35.356Z,10.70
2018-06-25T06:04:35.313Z,10.70
2018-06-25T06:05:35.280Z,10.60
2018-06-25T06:06:35.265Z,10.70
2018-06-25T06:07:35.196Z,11.00
2018-06-25T06:08:35.155Z,10.80
2018-06-25T06:09:35.126Z,11.10
2018-06-25T06:10:35.082Z,10.50
2018-06-25T06:11:35.048Z,11.20
2018-06-25T06:12:35.028Z,10.70
2018-06-25T06:13:34.968Z,12.50
2018-06-25T06:14:34.924Z,12.30
2018-06-25T06:15:34.914Z,12.20
2018-06-25T06:16:34.849Z,11.60
2018-06-25T06:17:34.855Z,11.50
2018-06-25T06:18:34.785Z,11.70
2018-06-25T06:19:34.752Z,12.80
2018-06-25T06:20:34.730Z,11.30
2018-06-25T06:21:34.676Z,12.50
2018-06-25T06:22:34.669Z,12.30
2018-06-25T06:23:34.590Z,12.00
2018-06-25T06:24:34.571Z,10.80
2018-06-25T06:25:34.536Z,11.00
2018-06-25T06:26:34.503Z,11.70
2018-06-25T06:27:34.447Z,10.90
2018-06-25T06:28:34.458Z,11.60
2018-06-25T06:29:34.379Z,10.90
2018-06-25T06:30:34.333Z,12.50
2018-06-25T06:31:34.305Z,12.50
2018-06-25T06:32:34.278Z,11.80
2018-06-25T06:33:34.256Z,14.00
2018-06-25T06:34:34.200Z,13.30
2018-06-25T06:35:34.157Z,12.90
2018-06-25T06:36:34.126Z,13.50
2018-06-25T06:37:34.109Z,13.40
2018-06-25T06:38:34.077Z,13.40
2018-06-25T06:39:34.000Z,13.60
2018-06-25T06:40:33.965Z,14.30
2018-06-25T06:41:33.947Z,12.00
2018-06-25T06:42:33.887Z,12.60
2018-06-25T06:43:33.876Z,11.20
2018-06-25T06:44:33.827Z,11.30
2018-06-25T06:45:33.790Z,11.00
2018-06-25T06:46:33.766Z,11.30
2018-06-25T06:47:33.710Z,10.30
2018-06-25T06:48:33.686Z,10.00
2018-06-25T06:49:33.650Z,8.90
2018-06-25T06:50:33.609Z,9.30
2018-06-25T06:51:33.632Z,8.70
2018-06-25T06:52:33.518Z,9.50
2018-06-25T06:53:33.531Z,8.90
2018-06-25T06:54:33.478Z,10.50
2018-06-25T06:55:33.411Z,8.70
2018-06-25T06:56:33.372Z,8.40
2018-06-25T06:57:33.369Z,10.00
2018-06-25T06:58:33.304Z,10.20
2018-06-25T06:59:33.273Z,9.30
2018-06-25T07:00:33.252Z,11.00
2018-06-25T07:01:33.172Z,10.60
2018-06-25T07:02:33.157Z,11.30
2018-06-25T07:03:33.124Z,12.70
2018-06-25T07:04:33.107Z,10.10
2018-06-25T07:05:33.028Z,10.80
2018-06-25T07:06:32.990Z,11.90
2018-06-25T07:07:32.959Z,11.90
2018-06-25T07:08:32.941Z,13.60
2018-06-25T07:09:32.917Z,12.30
2018-06-25T07:10:32.840Z,13.20
2018-06-25T07:11:32.822Z,10.70
2018-06-25T07:12:32.787Z,14.20
2018-06-25T07:13:32.754Z,11.30
2018-06-25T07:14:32.727Z,11.40
2018-06-25T07:15:32.669Z,10.30
2018-06-25T07:16:32.637Z,13.40
2018-06-25T07:17:32.651Z,13.70
2018-06-25T07:18:32.557Z,10.50
2018-06-25T07:19:32.535Z,12.40
2018-06-25T07:20:32.513Z,12.80
2018-06-25T07:21:32.467Z,15.70
2018-06-25T07:22:32.413Z,16.30
2018-06-25T07:23:32.372Z,15.90
2018-06-25T07:24:32.352Z,14.50
2018-06-25T07:25:32.315Z,13.60
2018-06-25T07:26:32.259Z,14.40
2018-06-25T07:27:32.220Z,13.60
2018-06-25T07:28:32.202Z,14.80
2018-06-25T07:29:42.676Z,16.60
2018-06-25T07:30:32.230Z,17.10
2018-06-25T07:31:32.082Z,18.30
2018-06-25T07:32:32.029Z,16.10
2018-06-25T07:33:32.154Z,17.00
2018-06-25T07:34:31.958Z,16.10
2018-06-25T07:35:31.943Z,16.30
2018-06-25T07:36:31.909Z,15.80
2018-06-25T07:37:31.850Z,15.10
2018-06-25T07:38:31.833Z,15.70
2018-06-25T07:39:31.811Z,14.10
2018-06-25T07:40:31.730Z,15.20
2018-06-25T07:41:31.730Z,14.80
2018-06-25T07:42:31.650Z,15.50
2018-06-25T07:43:31.619Z,16.60
2018-06-25T07:44:31.603Z,16.60
2018-06-25T07:45:31.539Z,15.10
2018-06-25T07:46:31.555Z,16.30
2018-06-25T07:47:31.495Z,15.20
2018-06-25T07:48:31.430Z,15.00
2018-06-25T07:49:31.405Z,13.90
2018-06-25T07:50:31.377Z,15.10
2018-06-25T07:51:31.382Z,16.20
2018-06-25T07:52:41.811Z,16.20
2018-06-25T07:53:31.327Z,15.90
2018-06-25T07:54:31.219Z,18.00
2018-06-25T07:55:31.436Z,15.20
2018-06-25T07:56:31.158Z,15.70
2018-06-25T07:57:31.170Z,15.70
2018-06-25T07:58:31.069Z,15.40
2018-06-25T07:59:31.013Z,16.00
2018-06-25T08:00:30.993Z,16.70
2018-06-25T08:01:30.968Z,17.70
2018-06-25T08:02:30.944Z,16.70
2018-06-25T08:03:30.909Z,17.90
2018-06-25T08:04:30.856Z,19.90
2018-06-25T08:05:30.804Z,17.00
2018-06-25T08:06:30.761Z,18.80
2018-06-25T08:07:30.778Z,16.70
2018-06-25T08:08:30.706Z,16.40
2018-06-25T08:09:30.750Z,16.50
2018-06-25T08:10:30.639Z,18.00
2018-06-25T08:11:30.641Z,15.60
2018-06-25T08:12:30.606Z,17.30
2018-06-25T08:13:30.513Z,16.60
2018-06-25T08:14:30.524Z,18.00
2018-06-25T08:15:30.493Z,18.00
2018-06-25T08:16:40.758Z,16.40
2018-06-25T08:17:30.443Z,16.50
2018-06-25T08:18:30.377Z,16.90
2018-06-25T08:19:30.294Z,16.60
2018-06-25T08:20:30.718Z,17.10
2018-06-25T08:21:30.218Z,17.10
2018-06-25T08:22:30.189Z,15.40
2018-06-25T08:23:30.163Z,15.60
2018-06-25T08:24:30.151Z,15.40
2018-06-25T08:25:30.081Z,14.70
2018-06-25T08:26:30.070Z,15.20
2018-06-25T08:27:30.047Z,14.40
2018-06-25T08:28:30.026Z,13.30
2018-06-25T08:29:29.968Z,15.80
2018-06-25T08:30:29.907Z,17.70
2018-06-25T08:31:29.866Z,14.40
2018-06-25T08:32:29.826Z,13.90
2018-06-25T08:33:29.879Z,15.70
2018-06-25T08:34:29.818Z,13.90
2018-06-25T08:35:29.728Z,18.60
2018-06-25T08:36:29.678Z,15.30
2018-06-25T08:37:29.671Z,16.10
2018-06-25T08:38:29.645Z,13.70
2018-06-25T08:39:29.614Z,13.60
2018-06-25T08:40:29.546Z,14.80
2018-06-25T08:41:29.533Z,16.20
2018-06-25T08:42:29.459Z,13.00
2018-06-25T08:43:29.505Z,12.20
2018-06-25T08:44:29.429Z,15.30
2018-06-25T08:45:29.360Z,14.80
2018-06-25T08:46:29.334Z,13.30
2018-06-25T08:47:29.288Z,13.80
2018-06-25T08:48:29.276Z,14.90
2018-06-25T08:49:29.247Z,13.70
2018-06-25T08:50:29.170Z,12.70
2018-06-25T08:51:29.150Z,14.40
2018-06-25T08:52:29.143Z,16.60
2018-06-25T08:53:29.090Z,18.10
2018-06-25T08:54:29.053Z,15.00
2018-06-25T08:55:29.039Z,17.10
2018-06-25T08:56:28.976Z,14.30
2018-06-25T08:57:28.945Z,14.80
2018-06-25T08:58:28.904Z,16.00
2018-06-25T08:59:28.869Z,16.80
2018-06-25T09:00:28.853Z,13.70
2018-06-25T09:01:28.787Z,15.40
2018-06-25T09:02:28.765Z,14.30
2018-06-25T09:03:28.810Z,13.50
2018-06-25T09:04:28.758Z,15.20
2018-06-25T09:05:28.669Z,15.50
2018-06-25T09:06:28.630Z,15.50
2018-06-25T09:07:28.656Z,16.70
2018-06-25T09:08:28.544Z,13.90
2018-06-25T09:09:28.566Z,14.00
2018-06-25T09:10:28.496Z,14.30
2018-06-25T09:11:28.462Z,13.50
2018-06-25T09:12:28.440Z,17.10
2018-06-25T09:13:28.377Z,13.90
2018-06-25T09:14:28.337Z,15.70
2018-06-25T09:15:28.341Z,13.50
2018-06-25T09:16:28.273Z,12.80
2018-06-25T09:17:28.224Z,13.50
2018-06-25T09:18:28.190Z,14.70
2018-06-25T09:19:28.158Z,13.90
2018-06-25T09:20:28.115Z,11.70
2018-06-25T09:21:28.118Z,11.60
2018-06-25T09:22:28.044Z,12.30
2018-06-25T09:23:28.022Z,13.30
2018-06-25T09:24:27.980Z,13.40
2018-06-25T09:25:27.944Z,14.40
2018-06-25T09:26:27.942Z,13.10
2018-06-25T09:27:27.851Z,10.80
2018-06-25T09:28:27.836Z,12.30
2018-06-25T09:29:27.824Z,10.70
2018-06-25T09:30:27.764Z,11.50
2018-06-25T09:31:27.728Z,12.30
2018-06-25T09:32:27.742Z,10.50
2018-06-25T09:33:27.657Z,11.70
2018-06-25T09:34:27.612Z,11.60
2018-06-25T09:35:27.576Z,13.00
2018-06-25T09:36:27.548Z,10.30
2018-06-25T09:37:27.538Z,10.90
2018-06-25T09:38:27.494Z,12.10
2018-06-25T09:39:27.440Z,14.50
2018-06-25T09:40:27.440Z,11.50
2018-06-25T09:41:27.464Z,12.20
2018-06-25T09:42:27.405Z,10.60
2018-06-25T09:43:27.317Z,12.00
2018-06-25T09:44:27.274Z,9.90
2018-06-25T09:45:27.248Z,11.00
2018-06-25T09:46:27.225Z,12.00
2018-06-25T09:47:27.173Z,10.60
2018-06-25T09:48:27.188Z,13.30
2018-06-25T09:49:27.110Z,10.80
2018-06-25T09:50:27.089Z,9.80
2018-06-25T09:51:27.045Z,10.90
2018-06-25T09:52:27.040Z,10.20
2018-06-25T09:53:27.001Z,10.50
2018-06-25T09:54:26.953Z,8.40
2018-06-25T09:55:26.920Z,9.20
2018-06-25T09:56:26.885Z,11.40
2018-06-25T09:57:26.840Z,9.50
2018-06-25T09:58:26.852Z,8.70
2018-06-25T09:59:26.775Z,10.50
2018-06-25T10:00:26.761Z,12.30
2018-06-25T10:01:26.706Z,9.00
2018-06-25T10:02:26.681Z,9.60
2018-06-25T10:03:26.727Z,10.50
2018-06-25T10:04:26.641Z,10.90
2018-06-25T10:05:26.588Z,11.50
2018-06-25T10:06:26.553Z,9.90
2018-06-25T10:07:26.510Z,10.50
2018-06-25T10:08:26.476Z,10.70
2018-06-25T10:09:26.501Z,11.00
2018-06-25T10:10:26.489Z,12.30
2018-06-25T10:11:26.399Z,12.00
2018-06-25T10:12:26.361Z,13.10
2018-06-25T10:13:26.318Z,10.60
2018-06-25T10:14:26.329Z,10.90
2018-06-25T10:15:26.241Z,12.90
2018-06-25T10:16:37.187Z,11.90
2018-06-25T10:17:26.174Z,11.30
2018-06-25T10:18:26.255Z,11.30
2018-06-25T10:19:26.906Z,11.40
2018-06-25T10:20:26.118Z,14.40
2018-06-25T10:21:26.224Z,13.60
2018-06-25T10:22:26.059Z,13.30
2018-06-25T10:23:26.001Z,13.70
2018-06-25T10:24:25.970Z,16.40
2018-06-25T10:25:25.939Z,17.10
2018-06-25T10:26:37.383Z,17.10
2018-06-25T10:27:25.812Z,17.10
2018-06-25T10:28:25.829Z,18.00
2018-06-25T10:29:25.856Z,18.40
2018-06-25T10:30:25.755Z,19.30
2018-06-25T10:31:25.690Z,18.80
2018-06-25T10:32:25.697Z,20.20
2018-06-25T10:33:25.683Z,20.10
2018-06-25T10:34:25.585Z,20.10
2018-06-25T10:35:25.580Z,20.00
2018-06-25T10:36:25.529Z,21.10
2018-06-25T10:37:25.499Z,35.60
2018-06-25T10:38:25.462Z,21.20
2018-06-25T10:39:25.433Z,19.10
2018-06-25T10:40:35.279Z,20.50
2018-06-25T10:41:25.355Z,22.60
2018-06-25T10:42:25.365Z,19.70
2018-06-25T10:43:25.920Z,17.90
2018-06-25T10:44:25.267Z,17.50
2018-06-25T10:45:25.204Z,17.80
2018-06-25T10:46:25.153Z,18.90
2018-06-25T10:47:25.167Z,21.10
2018-06-25T10:48:25.095Z,19.50
2018-06-25T10:49:25.084Z,18.80
2018-06-25T10:50:25.052Z,19.30
2018-06-25T10:51:24.984Z,20.10
2018-06-25T10:52:24.957Z,20.50
2018-06-25T10:53:24.933Z,21.60
2018-06-25T10:54:24.943Z,21.60
2018-06-25T10:55:24.895Z,20.70
2018-06-25T10:56:24.824Z,22.10
2018-06-25T10:57:24.804Z,21.60
2018-06-25T10:58:24.746Z,22.70
2018-06-25T10:59:24.764Z,21.90
2018-06-25T11:00:24.695Z,21.80
2018-06-25T11:01:24.676Z,20.10
2018-06-25T11:02:24.606Z,18.70
2018-06-25T11:03:24.568Z,19.20
2018-06-25T11:04:24.541Z,17.70
2018-06-25T11:05:24.534Z,18.40
2018-06-25T11:06:24.473Z,17.80
2018-06-25T11:07:24.532Z,19.60
2018-06-25T11:08:24.392Z,18.70
2018-06-25T11:09:24.365Z,17.60
2018-06-25T11:10:24.327Z,18.60
2018-06-25T11:11:24.333Z,21.70
2018-06-25T11:12:24.251Z,19.70
2018-06-25T11:13:24.214Z,18.70
2018-06-25T11:14:24.233Z,18.30
2018-06-25T11:15:24.181Z,18.70
2018-06-25T11:16:24.126Z,17.60
2018-06-25T11:17:24.078Z,19.10
2018-06-25T11:18:24.084Z,17.30
2018-06-25T11:19:24.020Z,17.50
2018-06-25T11:20:24.038Z,16.70
2018-06-25T11:21:23.924Z,18.30
2018-06-25T11:22:23.940Z,16.00
2018-06-25T11:23:23.885Z,15.60
2018-06-25T11:24:23.839Z,14.90
2018-06-25T11:25:23.805Z,13.90
2018-06-25T11:26:23.768Z,13.60
2018-06-25T11:27:23.874Z,13.40
2018-06-25T11:28:23.703Z,12.90
2018-06-25T11:29:23.661Z,12.50
2018-06-25T11:30:23.626Z,12.90
2018-06-25T11:31:23.631Z,14.90
2018-06-25T11:32:23.588Z,11.40
2018-06-25T11:33:23.544Z,12.00
2018-06-25T11:34:23.483Z,11.50
2018-06-25T11:35:23.457Z,10.30
2018-06-25T11:36:23.477Z,10.70
2018-06-25T11:37:23.382Z,11.20
2018-06-25T11:38:23.411Z,10.30
2018-06-25T11:39:23.367Z,10.90
2018-06-25T11:40:23.294Z,10.10
2018-06-25T11:41:23.236Z,9.70
2018-06-25T11:42:23.217Z,10.30
2018-06-25T11:43:23.212Z,10.70
2018-06-25T11:44:23.175Z,9.80
2018-06-25T11:45:23.130Z,10.60
2018-06-25T11:46:23.076Z,9.60
2018-06-25T11:47:23.073Z,12.00
2018-06-25T11:48:23.046Z,10.80
2018-06-25T11:49:22.981Z,9.20
2018-06-25T11:50:22.952Z,10.10
2018-06-25T11:51:22.921Z,8.30
2018-06-25T11:52:33.416Z,9.00
2018-06-25T11:53:22.823Z,9.00
2018-06-25T11:54:22.899Z,9.50
2018-06-25T11:55:22.771Z,10.80
2018-06-25T11:56:22.740Z,9.30
2018-06-25T11:57:22.687Z,8.10
2018-06-25T11:58:22.659Z,9.10
2018-06-25T11:59:22.660Z,9.90
2018-06-25T12:00:22.602Z,9.10
2018-06-25T12:01:22.579Z,8.80
2018-06-25T12:02:22.561Z,8.40
2018-06-25T12:03:22.534Z,10.20
2018-06-25T12:04:22.497Z,9.20
2018-06-25T12:05:22.471Z,7.40
2018-06-25T12:06:22.384Z,9.50
2018-06-25T12:07:22.400Z,8.40
2018-06-25T12:08:22.328Z,11.70
2018-06-25T12:09:22.322Z,9.40
2018-06-25T12:10:22.258Z,8.60
2018-06-25T12:11:22.217Z,11.70
2018-06-25T12:12:22.197Z,10.20
2018-06-25T12:13:22.178Z,9.30
2018-06-25T12:14:22.212Z,10.60
2018-06-25T12:15:22.115Z,9.30
2018-06-25T12:16:22.056Z,8.50
2018-06-25T12:17:22.103Z,9.80
2018-06-25T12:18:22.016Z,10.80
2018-06-25T12:19:21.938Z,8.40
2018-06-25T12:20:21.932Z,7.30
2018-06-25T12:21:21.890Z,9.20
2018-06-25T12:22:21.886Z,8.90
2018-06-25T12:23:21.818Z,9.00
2018-06-25T12:24:21.779Z,8.50
2018-06-25T12:25:21.778Z,9.10
2018-06-25T12:26:21.739Z,11.30
2018-06-25T12:27:21.705Z,11.20
2018-06-25T12:28:21.651Z,7.40
2018-06-25T12:29:21.633Z,9.80
2018-06-25T12:30:21.618Z,8.90
2018-06-25T12:31:21.630Z,8.70
2018-06-25T12:32:21.522Z,8.10
2018-06-25T12:33:21.489Z,10.40
2018-06-25T12:34:21.458Z,8.70
2018-06-25T12:35:21.440Z,9.00
2018-06-25T12:36:21.413Z,8.00
2018-06-25T12:37:21.361Z,11.30
2018-06-25T12:38:21.337Z,7.90
2018-06-25T12:39:32.129Z,7.10
2018-06-25T12:40:21.492Z,9.00
2018-06-25T12:41:21.315Z,9.90
2018-06-25T12:42:21.657Z,8.00
2018-06-25T12:43:21.226Z,8.00
2018-06-25T12:44:21.110Z,9.10
2018-06-25T12:45:21.092Z,9.80
2018-06-25T12:46:21.084Z,9.70
2018-06-25T12:47:21.008Z,6.50
2018-06-25T12:48:21.030Z,6.60
2018-06-25T12:49:20.944Z,8.50
2018-06-25T12:50:20.920Z,5.50
2018-06-25T12:51:20.886Z,9.60
2018-06-25T12:52:20.881Z,8.70
2018-06-25T12:53:20.858Z,7.60
2018-06-25T12:54:20.795Z,7.90
2018-06-25T12:55:20.748Z,8.10
2018-06-25T12:56:20.723Z,8.90
2018-06-25T12:57:20.721Z,8.00
2018-06-25T12:58:20.708Z,9.90
2018-06-25T12:59:20.626Z,7.20
2018-06-25T13:00:20.586Z,8.40